Time;durP1;ratioP1;P1;durP2;ratioP2;P2;SDS_P1;SDS_P2;PMS_P1;PMS_P2;Temp;Humidity;BMP_temperature;BMP_pressure;BME280_temperature;BME280_humidity;BME280_pressure;Samples;Min_cycle;Max_cycle;Signal;HPM_P1;HPM_P2
2022/10/02 00:02:15;;;;;;;;;;;11.00;99.90;;;;;;5101306;28;20306;-87
2022/10/02 00:04:50;;;;;;;;;;;11.00;99.90;;;;;;5124035;27;19924;-87
2022/10/02 00:07:17;;;;;;;;;;;11.10;99.90;;;;;;5135359;27;19924;-87
2022/10/02 00:09:42;;;;;;;;;;;11.10;99.90;;;;;;5100375;28;20398;-88
2022/10/02 00:12:10;;;;;;;;;;;11.00;99.90;;;;;;5102940;28;19967;-88
2022/10/02 00:14:37;;;;;;;;;;;11.00;99.90;;;;;;5099873;28;19924;-87
2022/10/02 00:17:03;;;;;;;;;;;11.00;99.90;;;;;;5132515;27;19942;-87
2022/10/02 00:19:28;;;;;;;;;;;9.50;99.90;;;;;;5107228;28;19924;-87
2022/10/02 00:21:57;;;;;;;;;;;10.90;99.90;;;;;;5131532;27;19931;-87
2022/10/02 00:24:25;;;;;;;;;;;10.80;99.90;;;;;;5138121;27;19930;-87
2022/10/02 00:26:51;;;;;;;;;;;10.80;99.90;;;;;;5101001;28;20010;-86
2022/10/02 00:29:16;;;;;;;;;;;10.70;99.90;;;;;;5103580;28;19935;-87
2022/10/02 00:31:48;;;;;;;;;;;10.70;99.90;;;;;;5131905;27;20526;-87
2022/10/02 00:34:33;;;;;;;;;;;10.60;99.90;;;;;;5126904;27;19924;-87
2022/10/02 00:37:19;;;;;;;;;;;10.50;99.90;;;;;;5134126;27;19931;-87
2022/10/02 00:39:45;;;;;;;;;;;10.50;99.90;;;;;;5153515;27;19930;-87
2022/10/02 00:42:49;;;;;;;;;;;10.40;99.90;;;;;;5131035;27;19962;-87
2022/10/02 00:45:15;;;;;;;;;;;10.30;99.90;;;;;;5044561;28;19929;-87
2022/10/02 00:47:59;;;;;;;;;;;10.30;99.90;;;;;;5049502;28;19925;-87
2022/10/02 00:50:24;;;;;;;;;;;10.30;99.90;;;;;;5086443;28;19950;-87
2022/10/02 00:52:58;;;;;;;;;;;10.30;99.90;;;;;;5141136;27;19920;-86
2022/10/02 00:55:24;;;;;;;;;;;10.30;99.90;;;;;;5118684;28;20294;-87
2022/10/02 00:57:52;;;;;;;;;;;10.20;99.90;;;;;;5121505;28;19924;-87
2022/10/02 01:00:19;;;;;;;;;;;10.20;99.90;;;;;;5124056;27;19928;-86
2022/10/02 01:02:48;;;;;;;;;;;10.20;99.90;;;;;;5103107;28;19924;-87
2022/10/02 01:05:14;;;;;;;;;;;10.20;99.90;;;;;;5102949;28;19949;-86
2022/10/02 01:07:41;;;;;;;;;;;10.10;99.90;;;;;;5120428;28;20728;-87
2022/10/02 01:10:11;;;;;;;;;;;10.10;99.90;;;;;;5119745;28;19928;-86
2022/10/02 01:12:37;;;;;;;;;;;10.10;99.90;;;;;;5089524;28;20338;-87
2022/10/02 01:15:29;;;;;;;;;;;10.10;99.90;;;;;;5134813;27;19924;-87
2022/10/02 01:17:55;;;;;;;;;;;10.10;99.90;;;;;;5093529;28;19931;-87
2022/10/02 01:20:40;;;;;;;;;;;10.10;99.90;;;;;;5125884;27;19924;-86
2022/10/02 01:23:06;;;;;;;;;;;10.10;99.90;;;;;;5100797;28;20430;-88
2022/10/02 01:25:32;;;;;;;;;;;10.00;99.90;;;;;;5134949;28;19924;-86
2022/10/02 01:27:57;;;;;;;;;;;10.00;99.90;;;;;;5119789;28;19924;-86
2022/10/02 01:30:23;;;;;;;;;;;10.00;99.90;;;;;;5083470;28;20185;-84
2022/10/02 01:32:54;;;;;;;;;;;10.00;99.90;;;;;;5135590;28;20279;-86
2022/10/02 01:35:21;;;;;;;;;;;10.00;99.90;;;;;;5123525;28;20020;-85
2022/10/02 01:37:48;;;;;;;;;;;10.00;99.90;;;;;;5103011;28;19928;-86
2022/10/02 01:40:22;;;;;;;;;;;10.00;99.90;;;;;;5102621;28;20296;-86
2022/10/02 01:42:48;;;;;;;;;;;10.00;99.90;;;;;;5119240;28;19924;-85
2022/10/02 01:45:14;;;;;;;;;;;10.00;99.90;;;;;;5089247;28;19971;-85
2022/10/02 01:47:47;;;;;;;;;;;10.00;99.90;;;;;;5127659;27;19947;-86
2022/10/02 01:50:30;;;;;;;;;;;10.10;99.90;;;;;;5132585;27;19985;-86
2022/10/02 01:53:04;;;;;;;;;;;10.10;99.90;;;;;;5105571;28;19928;-85
2022/10/02 01:55:48;;;;;;;;;;;10.10;99.90;;;;;;5137150;27;20019;-85
2022/10/02 01:58:21;;;;;;;;;;;10.00;99.90;;;;;;5139778;27;20018;-86
2022/10/02 02:01:04;;;;;;;;;;;10.00;99.90;;;;;;5118327;28;19928;-85
2022/10/02 02:03:48;;;;;;;;;;;10.10;99.90;;;;;;5123384;28;20315;-85
2022/10/02 02:06:19;;;;;;;;;;;10.10;99.90;;;;;;5152750;27;19924;-86
2022/10/02 02:08:52;;;;;;;;;;;10.10;99.90;;;;;;5105925;28;19924;-85
2022/10/02 02:11:19;;;;;;;;;;;10.00;99.90;;;;;;5102810;28;19987;-85
2022/10/02 02:14:00;;;;;;;;;;;10.00;99.90;;;;;;5102133;28;19964;-86
2022/10/02 02:16:30;;;;;;;;;;;10.00;99.90;;;;;;5139288;27;19997;-86
2022/10/02 02:19:09;;;;;;;;;;;10.00;99.90;;;;;;5091903;28;19924;-86
2022/10/02 02:21:40;;;;;;;;;;;10.00;99.90;;;;;;5155844;27;19928;-86
2022/10/02 02:24:09;;;;;;;;;;;10.00;99.90;;;;;;5102997;28;20018;-85
2022/10/02 02:26:35;;;;;;;;;;;10.00;99.90;;;;;;5127021;27;19932;-86
2022/10/02 02:29:03;;;;;;;;;;;10.00;99.90;;;;;;5136371;27;19924;-87
2022/10/02 02:31:32;;;;;;;;;;;10.00;99.90;;;;;;5121433;28;20010;-86
2022/10/02 02:34:01;;;;;;;;;;;10.00;99.90;;;;;;5138637;27;19923;-86
2022/10/02 02:36:31;;;;;;;;;;;10.00;99.90;;;;;;5102348;28;19928;-86
2022/10/02 02:38:59;;;;;;;;;;;10.00;99.90;;;;;;5105363;28;20346;-86
2022/10/02 02:41:26;;;;;;;;;;;10.00;99.90;;;;;;5129348;27;19981;-85
2022/10/02 02:44:02;;;;;;;;;;;10.00;99.90;;;;;;5130268;27;19987;-86
2022/10/02 02:46:31;;;;;;;;;;;10.10;99.90;;;;;;5121681;27;19924;-86
2022/10/02 02:49:03;;;;;;;;;;;10.10;99.90;;;;;;5101988;28;19928;-86
2022/10/02 02:51:31;;;;;;;;;;;10.10;99.90;;;;;;5104461;28;19969;-86
2022/10/02 02:54:18;;;;;;;;;;;10.10;99.90;;;;;;5125684;27;19987;-86
2022/10/02 02:56:44;;;;;;;;;;;10.20;99.90;;;;;;5138395;27;19945;-86
2022/10/02 02:59:10;;;;;;;;;;;10.20;99.90;;;;;;5105434;28;19931;-86
2022/10/02 03:01:36;;;;;;;;;;;10.30;99.90;;;;;;5083788;28;19928;-85
2022/10/02 03:04:02;;;;;;;;;;;10.30;99.90;;;;;;5101965;28;19930;-86
2022/10/02 03:06:32;;;;;;;;;;;10.30;99.90;;;;;;5139653;27;20371;-86
2022/10/02 03:08:58;;;;;;;;;;;10.30;99.90;;;;;;5147641;27;19920;-86
2022/10/02 03:11:23;;;;;;;;;;;10.40;99.90;;;;;;5143892;27;19935;-86
2022/10/02 03:13:55;;;;;;;;;;;10.40;99.90;;;;;;5139609;27;19988;-86
2022/10/02 03:16:41;;;;;;;;;;;10.40;99.90;;;;;;5109645;28;19923;-85
2022/10/02 03:19:26;;;;;;;;;;;10.40;99.90;;;;;;5103571;28;19932;-86
2022/10/02 03:21:57;;;;;;;;;;;10.50;99.90;;;;;;5100631;28;19927;-86
2022/10/02 03:24:27;;;;;;;;;;;10.40;99.90;;;;;;5135372;27;19927;-86
2022/10/02 03:26:57;;;;;;;;;;;10.40;99.90;;;;;;5117598;28;19924;-86
2022/10/02 03:29:36;;;;;;;;;;;10.40;99.90;;;;;;5136117;27;19924;-86
2022/10/02 03:32:02;;;;;;;;;;;10.40;99.90;;;;;;5120593;28;19990;-86
2022/10/02 03:34:30;;;;;;;;;;;10.40;99.90;;;;;;5120894;28;19924;-86
2022/10/02 03:36:56;;;;;;;;;;;10.50;99.90;;;;;;5100307;28;19924;-86
2022/10/02 03:39:21;;;;;;;;;;;10.50;99.90;;;;;;5119745;28;19924;-86
2022/10/02 03:41:47;;;;;;;;;;;10.40;99.90;;;;;;5104562;28;19924;-86
2022/10/02 03:44:12;;;;;;;;;;;10.40;99.90;;;;;;5087060;28;19924;-85
2022/10/02 03:46:38;;;;;;;;;;;10.40;99.90;;;;;;5120756;28;19931;-85
2022/10/02 03:49:03;;;;;;;;;;;10.40;99.90;;;;;;5116401;28;19924;-85
2022/10/02 03:51:29;;;;;;;;;;;10.40;99.90;;;;;;5103285;28;19991;-85
2022/10/02 03:53:55;;;;;;;;;;;10.40;99.90;;;;;;5113664;28;19931;-85
2022/10/02 03:56:24;;;;;;;;;;;10.40;99.90;;;;;;5114940;28;19924;-85
2022/10/02 03:58:51;;;;;;;;;;;10.40;99.90;;;;;;5104932;28;19924;-85
2022/10/02 04:01:23;;;;;;;;;;;10.40;99.90;;;;;;5098891;28;20019;-85
2022/10/02 04:04:22;;;;;;;;;;;10.40;99.90;;;;;;5104557;28;20376;-86
2022/10/02 04:06:50;;;;;;;;;;;10.30;99.90;;;;;;5069979;28;19923;-86
2022/10/02 04:09:26;;;;;;;;;;;10.30;99.90;;;;;;5120124;28;20460;-85
2022/10/02 04:11:56;;;;;;;;;;;10.30;99.90;;;;;;5127412;27;19998;-86
2022/10/02 04:14:42;;;;;;;;;;;10.30;99.90;;;;;;5126556;27;19924;-85
2022/10/02 04:17:10;;;;;;;;;;;10.20;99.90;;;;;;5114862;28;19920;-86
2022/10/02 04:19:42;;;;;;;;;;;10.20;99.90;;;;;;5130487;28;19931;-85
2022/10/02 04:22:14;;;;;;;;;;;10.20;99.90;;;;;;5136521;27;19962;-86
2022/10/02 04:25:01;;;;;;;;;;;10.10;99.90;;;;;;5137745;27;19952;-86
2022/10/02 04:27:50;;;;;;;;;;;10.20;99.90;;;;;;5103332;28;19928;-86
2022/10/02 04:30:17;;;;;;;;;;;10.10;99.90;;;;;;5113967;28;19928;-86
2022/10/02 04:32:43;;;;;;;;;;;10.10;99.90;;;;;;5103584;28;19923;-86
2022/10/02 04:35:20;;;;;;;;;;;10.10;99.90;;;;;;5099864;28;20011;-86
2022/10/02 04:38:04;;;;;;;;;;;10.10;99.90;;;;;;5095258;28;19946;-86
2022/10/02 04:40:29;;;;;;;;;;;10.10;99.90;;;;;;5114659;28;19923;-86
2022/10/02 04:43:06;;;;;;;;;;;10.10;99.90;;;;;;5102696;28;19930;-86
2022/10/02 04:45:39;;;;;;;;;;;10.10;99.90;;;;;;5116151;28;19927;-86
2022/10/02 04:48:05;;;;;;;;;;;10.10;99.90;;;;;;5099556;28;19924;-86
2022/10/02 04:50:31;;;;;;;;;;;10.20;99.90;;;;;;5126521;27;19949;-86
2022/10/02 04:53:21;;;;;;;;;;;10.20;99.90;;;;;;5102114;28;19995;-86
2022/10/02 04:56:05;;;;;;;;;;;10.10;99.90;;;;;;5098784;28;19928;-86
2022/10/02 04:58:31;;;;;;;;;;;10.00;99.90;;;;;;5098141;28;19954;-85
2022/10/02 05:00:56;;;;;;;;;;;10.10;99.90;;;;;;5132470;27;20484;-87
2022/10/02 05:03:25;;;;;;;;;;;10.00;99.90;;;;;;5136376;27;19924;-86
2022/10/02 05:06:09;;;;;;;;;;;10.00;99.90;;;;;;5101717;28;19932;-87
2022/10/02 05:08:49;;;;;;;;;;;10.00;99.90;;;;;;5136622;27;19983;-86
2022/10/02 05:11:15;;;;;;;;;;;9.90;99.90;;;;;;5102554;28;20384;-86
2022/10/02 05:14:10;;;;;;;;;;;9.90;99.90;;;;;;5099366;28;19924;-86
2022/10/02 05:16:45;;;;;;;;;;;9.80;99.90;;;;;;5085260;28;20029;-87
2022/10/02 05:19:27;;;;;;;;;;;9.80;99.90;;;;;;5133125;27;19944;-86
2022/10/02 05:21:53;;;;;;;;;;;9.70;99.90;;;;;;5088814;28;19939;-87
2022/10/02 05:24:30;;;;;;;;;;;9.70;99.90;;;;;;5134261;28;19924;-86
2022/10/02 05:27:02;;;;;;;;;;;9.70;99.90;;;;;;5147591;28;19920;-86
2022/10/02 05:29:33;;;;;;;;;;;9.60;99.90;;;;;;5129017;28;19955;-86
2022/10/02 05:32:11;;;;;;;;;;;9.60;99.90;;;;;;5133251;28;19924;-86
2022/10/02 05:34:37;;;;;;;;;;;9.60;99.90;;;;;;5096299;28;20325;-86
2022/10/02 05:37:21;;;;;;;;;;;9.50;99.90;;;;;;5102472;28;19924;-85
2022/10/02 05:39:55;;;;;;;;;;;9.50;99.90;;;;;;5132826;28;19927;-86
2022/10/02 05:42:26;;;;;;;;;;;9.40;99.90;;;;;;5124919;28;19990;-87
2022/10/02 05:44:59;;;;;;;;;;;9.40;99.90;;;;;;5097257;28;20291;-86
2022/10/02 05:47:45;;;;;;;;;;;9.40;99.90;;;;;;5122379;28;20293;-86
2022/10/02 05:50:10;;;;;;;;;;;9.40;99.90;;;;;;5122147;28;20069;-86
2022/10/02 05:52:42;;;;;;;;;;;9.40;99.90;;;;;;5134318;27;19927;-86
2022/10/02 05:55:20;;;;;;;;;;;9.30;99.90;;;;;;5133804;28;19924;-86
2022/10/02 05:57:46;;;;;;;;;;;9.40;99.90;;;;;;5109742;28;19955;-86
2022/10/02 06:00:12;;;;;;;;;;;9.40;99.90;;;;;;5100789;28;19947;-86
2022/10/02 06:02:48;;;;;;;;;;;9.50;99.90;;;;;;5130761;28;20266;-87
2022/10/02 06:05:17;;;;;;;;;;;9.50;99.90;;;;;;5101049;28;19931;-86
2022/10/02 06:07:46;;;;;;;;;;;9.50;99.90;;;;;;5134379;28;19931;-86
2022/10/02 06:10:15;;;;;;;;;;;9.50;99.90;;;;;;5100836;28;19924;-86
2022/10/02 06:12:44;;;;;;;;;;;9.50;99.90;;;;;;5119325;28;20313;-87
2022/10/02 06:15:30;;;;;;;;;;;9.50;99.90;;;;;;5139070;28;19963;-86
2022/10/02 06:18:08;;;;;;;;;;;9.50;99.90;;;;;;5111010;28;19924;-86
2022/10/02 06:20:53;;;;;;;;;;;9.50;99.90;;;;;;5116158;28;19919;-85
2022/10/02 06:23:20;;;;;;;;;;;9.50;99.90;;;;;;5167779;27;19930;-86
2022/10/02 06:25:48;;;;;;;;;;;9.50;99.90;;;;;;5137734;28;19947;-86
2022/10/02 06:28:24;;;;;;;;;;;9.60;99.90;;;;;;5162438;27;19924;-87
2022/10/02 06:31:00;;;;;;;;;;;9.60;99.90;;;;;;5147565;27;19930;-86
2022/10/02 06:33:28;;;;;;;;;;;9.60;99.90;;;;;;5132816;28;19919;-86
2022/10/02 06:36:12;;;;;;;;;;;9.60;99.90;;;;;;5112586;28;19956;-86
2022/10/02 06:38:57;;;;;;;;;;;9.70;99.90;;;;;;5106989;28;19924;-86
2022/10/02 06:41:34;;;;;;;;;;;9.70;99.90;;;;;;5124171;27;20169;-86
2022/10/02 06:44:26;;;;;;;;;;;9.80;99.90;;;;;;5105437;28;19924;-86
2022/10/02 06:46:57;;;;;;;;;;;9.80;99.90;;;;;;5075693;28;19924;-87
2022/10/02 06:49:28;;;;;;;;;;;9.90;99.90;;;;;;5095165;28;19924;-86
2022/10/02 06:51:57;;;;;;;;;;;10.00;99.90;;;;;;5138445;27;19924;-87
2022/10/02 06:54:32;;;;;;;;;;;10.10;99.90;;;;;;5122804;28;20018;-87
2022/10/02 06:57:16;;;;;;;;;;;10.30;99.90;;;;;;5105111;28;19930;-87
2022/10/02 06:59:45;;;;;;;;;;;10.50;99.90;;;;;;5130355;27;20014;-87
2022/10/02 07:02:29;;;;;;;;;;;10.70;99.90;;;;;;5139014;27;19930;-87
2022/10/02 07:05:14;;;;;;;;;;;10.90;99.90;;;;;;5115478;28;19932;-88
2022/10/02 07:07:54;;;;;;;;;;;11.10;99.90;;;;;;5105220;28;19947;-87
2022/10/02 07:10:20;;;;;;;;;;;11.10;99.90;;;;;;5138661;27;20355;-87
2022/10/02 07:12:49;;;;;;;;;;;11.30;99.90;;;;;;5104982;28;20015;-86
2022/10/02 07:15:17;;;;;;;;;;;11.40;99.90;;;;;;5092726;28;19924;-86
2022/10/02 07:17:46;;;;;;;;;;;11.50;99.90;;;;;;5120003;28;19951;-86
2022/10/02 07:20:11;;;;;;;;;;;11.60;99.90;;;;;;5121267;28;19924;-86
2022/10/02 07:22:44;;;;;;;;;;;11.70;99.90;;;;;;5133913;27;19946;-87
2022/10/02 07:25:13;;;;;;;;;;;11.70;99.90;;;;;;5128697;27;19934;-86
2022/10/02 07:27:45;;;;;;;;;;;11.70;99.90;;;;;;5103038;28;19979;-85
2022/10/02 07:30:13;;;;;;;;;;;11.70;99.90;;;;;;5134613;27;19934;-86
2022/10/02 07:32:39;;;;;;;;;;;11.60;99.90;;;;;;5102098;28;19924;-86
2022/10/02 07:35:20;;;;;;;;;;;11.50;99.90;;;;;;5131476;27;19930;-86
2022/10/02 07:38:12;;;;;;;;;;;11.50;99.90;;;;;;5101965;28;19959;-86
2022/10/02 07:40:58;;;;;;;;;;;11.50;99.90;;;;;;5105392;28;19928;-84
2022/10/02 07:43:23;;;;;;;;;;;11.50;99.90;;;;;;5166753;27;19949;-85
2022/10/02 07:45:49;;;;;;;;;;;11.60;99.90;;;;;;5106096;28;19924;-86
2022/10/02 07:48:23;;;;;;;;;;;11.60;99.90;;;;;;5126693;27;19978;-87
2022/10/02 07:50:49;;;;;;;;;;;11.70;99.90;;;;;;5099813;28;20621;-88
2022/10/02 07:53:27;;;;;;;;;;;11.70;99.90;;;;;;5129844;27;19924;-85
2022/10/02 07:55:54;;;;;;;;;;;11.70;99.90;;;;;;5092258;28;19928;-85
2022/10/02 07:58:34;;;;;;;;;;;11.70;99.90;;;;;;5104389;28;19924;-84
2022/10/02 08:01:01;;;;;;;;;;;11.70;99.90;;;;;;5102624;28;19927;-84
2022/10/02 08:03:28;;;;;;;;;;;11.70;99.90;;;;;;5102324;28;20008;-84
2022/10/02 08:05:54;;;;;;;;;;;11.70;99.90;;;;;;5100549;28;19980;-85
2022/10/02 08:08:26;;;;;;;;;;;11.70;99.90;;;;;;5104608;28;19924;-86
2022/10/02 08:11:02;;;;;;;;;;;11.70;99.90;;;;;;5121002;28;19931;-85
2022/10/02 08:13:31;;;;;;;;;;;11.70;99.90;;;;;;5121469;27;19931;-85
2022/10/02 08:15:58;;;;;;;;;;;11.80;99.90;;;;;;5137075;27;19927;-86
2022/10/02 08:18:31;;;;;;;;;;;11.90;99.90;;;;;;5112340;28;19924;-88
2022/10/02 08:20:58;;;;;;;;;;;11.90;99.90;;;;;;5134907;27;19932;-86
2022/10/02 08:23:28;;;;;;;;;;;11.90;99.90;;;;;;5104175;28;19962;-85
2022/10/02 08:26:06;;;;;;;;;;;11.90;99.90;;;;;;5103251;28;19969;-86
2022/10/02 08:28:50;;;;;;;;;;;11.90;99.90;;;;;;5102422;28;19931;-86
2022/10/02 08:31:16;;;;;;;;;;;11.90;99.90;;;;;;5101927;28;20329;-87
2022/10/02 08:33:42;;;;;;;;;;;11.90;99.90;;;;;;5103053;28;19924;-85
2022/10/02 08:36:27;;;;;;;;;;;11.90;99.90;;;;;;5120177;28;19934;-87
2022/10/02 08:38:59;;;;;;;;;;;11.90;99.90;;;;;;5102628;28;19945;-87
2022/10/02 08:41:53;;;;;;;;;;;11.90;99.90;;;;;;5124955;27;19955;-86
2022/10/02 08:44:20;;;;;;;;;;;12.00;99.90;;;;;;5122612;27;19963;-86
2022/10/02 08:47:04;;;;;;;;;;;12.00;99.90;;;;;;5095934;28;19932;-87
2022/10/02 08:49:46;;;;;;;;;;;12.10;99.90;;;;;;5142595;27;19920;-87
2022/10/02 08:52:20;;;;;;;;;;;12.20;99.90;;;;;;5109195;28;20014;-87
2022/10/02 08:55:05;;;;;;;;;;;12.20;99.90;;;;;;5131055;27;19936;-87
2022/10/02 08:57:51;;;;;;;;;;;12.30;99.90;;;;;;5097627;28;19931;-87
2022/10/02 09:00:19;;;;;;;;;;;12.40;99.90;;;;;;5114617;28;19970;-88
2022/10/02 09:02:59;;;;;;;;;;;12.30;99.90;;;;;;5093195;28;19924;-87
2022/10/02 09:05:44;;;;;;;;;;;12.40;99.90;;;;;;5096266;28;19955;-87
2022/10/02 09:08:28;;;;;;;;;;;12.40;99.90;;;;;;5117708;28;19928;-86
2022/10/02 09:11:13;;;;;;;;;;;12.50;99.90;;;;;;5126304;27;19924;-88
2022/10/02 09:13:44;;;;;;;;;;;12.70;99.90;;;;;;5144548;27;20213;-86
2022/10/02 09:16:10;;;;;;;;;;;12.90;99.90;;;;;;5124860;27;19928;-87
2022/10/02 09:18:58;;;;;;;;;;;13.10;99.90;;;;;;5133438;27;19931;-88
2022/10/02 09:21:30;;;;;;;;;;;13.30;99.90;;;;;;5133798;27;19924;-87
2022/10/02 09:24:28;;;;;;;;;;;13.40;99.90;;;;;;5099034;28;19924;-86
2022/10/02 09:27:00;;;;;;;;;;;13.60;99.90;;;;;;5063181;28;19951;-86
2022/10/02 09:29:51;;;;;;;;;;;13.60;99.90;;;;;;5135604;28;19934;-87
2022/10/02 09:32:23;;;;;;;;;;;13.70;99.90;;;;;;5129130;28;19979;-86
2022/10/02 09:35:00;;;;;;;;;;;13.70;99.90;;;;;;5130628;28;19930;-87
2022/10/02 09:37:42;;;;;;;;;;;13.70;99.90;;;;;;5128430;28;19928;-85
2022/10/02 09:40:28;;;;;;;;;;;13.80;99.90;;;;;;5131031;27;19961;-86
2022/10/02 09:43:12;;;;;;;;;;;13.90;99.90;;;;;;5137826;27;19971;-86
2022/10/02 09:45:56;;;;;;;;;;;13.90;99.90;;;;;;5125249;28;19974;-87
2022/10/02 09:48:22;;;;;;;;;;;13.90;99.90;;;;;;5124641;28;19930;-87
2022/10/02 09:51:04;;;;;;;;;;;13.80;99.90;;;;;;5125840;27;19924;-86
2022/10/02 09:53:57;;;;;;;;;;;13.70;99.90;;;;;;5095193;28;19923;-86
2022/10/02 09:56:52;;;;;;;;;;;13.70;99.90;;;;;;5118263;28;19977;-85
2022/10/02 09:59:30;;;;;;;;;;;13.80;99.90;;;;;;5102411;28;19924;-86
2022/10/02 10:02:10;;;;;;;;;;;13.90;99.90;;;;;;5130801;28;20015;-86
2022/10/02 10:04:37;;;;;;;;;;;14.00;99.90;;;;;;5118586;28;19947;-84
2022/10/02 10:07:21;;;;;;;;;;;14.10;99.90;;;;;;5136361;27;19981;-87
2022/10/02 10:09:56;;;;;;;;;;;14.20;99.90;;;;;;5129834;27;19932;-88
2022/10/02 10:12:40;;;;;;;;;;;14.30;99.90;;;;;;5119476;28;19927;-88
2022/10/02 10:15:26;;;;;;;;;;;14.40;99.90;;;;;;5137851;27;19944;-87
2022/10/02 10:18:02;;;;;;;;;;;14.50;99.90;;;;;;5129343;27;19924;-88
2022/10/02 10:20:33;;;;;;;;;;;14.60;99.90;;;;;;5128996;27;20013;-88
2022/10/02 10:23:11;;;;;;;;;;;14.70;99.90;;;;;;5105262;28;19924;-89
2022/10/02 10:25:57;;;;;;;;;;;14.80;99.90;;;;;;5113303;28;19975;-89
2022/10/02 10:28:36;;;;;;;;;;;15.00;99.90;;;;;;5104204;28;19974;-88
2022/10/02 10:31:21;;;;;;;;;;;15.20;99.90;;;;;;5103273;28;19924;-87
2022/10/02 10:33:46;;;;;;;;;;;15.40;99.90;;;;;;5132101;27;20473;-87
2022/10/02 10:39:34;;;;;;;;;;;15.80;99.90;;;;;;5119867;28;19928;-86
2022/10/02 10:42:19;;;;;;;;;;;15.80;99.90;;;;;;5130794;27;19967;-86
2022/10/02 10:44:54;;;;;;;;;;;15.60;99.90;;;;;;5150330;27;19924;-86
2022/10/02 10:47:20;;;;;;;;;;;15.50;99.90;;;;;;5136436;27;19932;-86
2022/10/02 10:50:04;;;;;;;;;;;15.50;99.90;;;;;;5132877;27;19924;-86
2022/10/02 10:52:50;;;;;;;;;;;15.70;99.90;;;;;;5114049;28;19924;-87
2022/10/02 10:55:19;;;;;;;;;;;15.80;99.90;;;;;;5104461;28;19928;-88
2022/10/02 10:58:00;;;;;;;;;;;16.00;99.90;;;;;;5104092;28;19979;-88
2022/10/02 11:00:26;;;;;;;;;;;16.10;99.90;;;;;;5120867;28;19924;-89
2022/10/02 11:03:10;;;;;;;;;;;16.30;99.90;;;;;;5091440;28;19924;-88
2022/10/02 11:05:39;;;;;;;;;;;16.40;99.90;;;;;;5103710;28;19991;-89
2022/10/02 11:08:17;;;;;;;;;;;16.30;99.90;;;;;;5105968;28;19930;-88
2022/10/02 11:10:49;;;;;;;;;;;16.40;99.90;;;;;;5101511;28;19924;-87
2022/10/02 11:13:29;;;;;;;;;;;16.40;99.90;;;;;;5101591;28;20386;-88
2022/10/02 11:16:01;;;;;;;;;;;16.40;99.90;;;;;;5111154;28;19924;-87
2022/10/02 11:18:50;;;;;;;;;;;16.40;99.90;;;;;;5114323;28;19928;-87
2022/10/02 11:21:32;;;;;;;;;;;16.30;99.90;;;;;;5120380;28;19928;-90
2022/10/02 11:24:07;;;;;;;;;;;16.30;99.90;;;;;;5122231;28;19931;-90
2022/10/02 11:26:42;;;;;;;;;;;16.30;99.90;;;;;;5093866;28;19959;-90
2022/10/02 11:29:32;;;;;;;;;;;16.30;99.90;;;;;;5104920;28;19924;-90
2022/10/02 11:31:57;;;;;;;;;;;16.50;99.90;;;;;;5130106;27;19931;-89
2022/10/02 11:34:46;;;;;;;;;;;16.60;99.90;;;;;;5127703;27;19924;-92
2022/10/02 11:37:23;;;;;;;;;;;16.80;99.90;;;;;;5073892;28;20022;-90
2022/10/02 11:39:48;;;;;;;;;;;16.90;99.90;;;;;;5128500;27;19924;-89
2022/10/02 11:42:47;;;;;;;;;;;17.00;99.90;;;;;;5096413;28;19935;-89
2022/10/02 11:45:29;;;;;;;;;;;17.10;99.90;;;;;;5112141;27;20478;-88
2022/10/02 11:48:08;;;;;;;;;;;17.30;99.90;;;;;;5124363;27;19924;-88
2022/10/02 11:50:33;;;;;;;;;;;17.40;99.90;;;;;;5128198;27;19924;-89
2022/10/02 11:53:02;;;;;;;;;;;17.40;99.90;;;;;;5125172;27;20428;-90
2022/10/02 11:55:44;;;;;;;;;;;17.40;99.90;;;;;;5128725;27;19934;-89
2022/10/02 11:58:31;;;;;;;;;;;17.50;99.90;;;;;;5103519;28;19924;-88
2022/10/02 12:01:04;;;;;;;;;;;17.50;99.90;;;;;;5125594;27;19931;-89
2022/10/02 12:03:45;;;;;;;;;;;17.50;99.90;;;;;;5116354;28;19924;-89
2022/10/02 12:06:12;;;;;;;;;;;17.50;99.90;;;;;;5103334;28;19931;-88
2022/10/02 12:09:13;;;;;;;;;;;17.40;99.90;;;;;;5120015;28;19930;-90
2022/10/02 12:11:51;;;;;;;;;;;17.30;99.90;;;;;;5062772;28;19932;-90
2022/10/02 12:14:21;;;;;;;;;;;17.40;99.90;;;;;;5095349;28;19975;-90
2022/10/02 12:16:56;;;;;;;;;;;17.40;99.90;;;;;;5100576;28;19934;-89
2022/10/02 12:19:29;;;;;;;;;;;17.40;99.90;;;;;;5131188;27;19932;-88
2022/10/02 12:27:53;;;;;;;;;;;17.30;99.90;;;;;;5112195;28;19924;-89
2022/10/02 12:30:27;;;;;;;;;;;17.40;99.90;;;;;;5091270;28;19975;-90
2022/10/02 12:33:11;;;;;;;;;;;17.60;99.90;;;;;;5128994;27;19974;-89
2022/10/02 12:35:40;;;;;;;;;;;17.70;99.90;;;;;;5108991;28;19924;-90
2022/10/02 12:38:25;;;;;;;;;;;17.60;99.90;;;;;;5099978;28;19924;-91
2022/10/02 12:41:06;;;;;;;;;;;17.60;99.90;;;;;;5143580;27;20409;-91
2022/10/02 12:43:37;;;;;;;;;;;17.70;99.90;;;;;;5091010;28;20430;-90
2022/10/02 12:46:12;;;;;;;;;;;17.70;99.90;;;;;;5129807;27;19931;-91
2022/10/02 12:48:38;;;;;;;;;;;17.60;99.90;;;;;;5105600;28;19934;-90
2022/10/02 12:51:22;;;;;;;;;;;17.60;99.90;;;;;;5120251;28;19924;-89
2022/10/02 12:54:05;;;;;;;;;;;17.80;99.90;;;;;;5113858;28;20002;-90
2022/10/02 12:56:44;;;;;;;;;;;17.90;99.90;;;;;;5097616;28;19951;-89
2022/10/02 12:59:16;;;;;;;;;;;17.90;99.90;;;;;;5128549;27;20383;-89
2022/10/02 13:01:54;;;;;;;;;;;17.80;99.90;;;;;;5097586;28;19989;-89
2022/10/02 13:04:28;;;;;;;;;;;17.60;99.90;;;;;;5130112;27;19963;-91
2022/10/02 13:06:54;;;;;;;;;;;17.70;99.90;;;;;;5120000;28;20386;-89
2022/10/02 13:09:30;;;;;;;;;;;17.80;99.90;;;;;;5101919;28;19931;-89
2022/10/02 13:11:56;;;;;;;;;;;17.70;99.90;;;;;;5092903;28;19988;-87
2022/10/02 13:14:32;;;;;;;;;;;17.70;99.90;;;;;;5127382;27;19924;-88
2022/10/02 13:17:20;;;;;;;;;;;17.70;99.90;;;;;;5130742;27;19923;-87
2022/10/02 13:20:01;;;;;;;;;;;17.40;99.90;;;;;;5135603;27;19928;-89
2022/10/02 13:22:33;;;;;;;;;;;17.30;99.90;;;;;;5113205;28;19919;-89
2022/10/02 13:25:17;;;;;;;;;;;17.30;99.90;;;;;;5129337;28;19931;-89
2022/10/02 13:27:48;;;;;;;;;;;17.30;99.90;;;;;;5086020;28;19924;-89
2022/10/02 13:30:16;;;;;;;;;;;17.40;99.90;;;;;;5100786;28;20291;-88
2022/10/02 13:32:45;;;;;;;;;;;17.40;99.90;;;;;;5115765;28;20270;-88
2022/10/02 13:35:14;;;;;;;;;;;17.50;99.90;;;;;;5099301;28;19935;-90
2022/10/02 13:37:39;;;;;;;;;;;17.60;99.90;;;;;;5127751;28;19923;-88
2022/10/02 13:40:28;;;;;;;;;;;17.70;99.90;;;;;;5096318;28;20418;-90
2022/10/02 13:43:09;;;;;;;;;;;17.70;99.90;;;;;;5131972;27;19924;-92
2022/10/02 13:45:58;;;;;;;;;;;17.60;99.90;;;;;;5148485;27;20379;-91
2022/10/02 13:48:42;;;;;;;;;;;17.60;99.90;;;;;;5065679;28;19979;-91
2022/10/02 13:51:09;;;;;;;;;;;17.50;99.90;;;;;;5138618;27;19938;-88
2022/10/02 13:53:34;;;;;;;;;;;17.30;99.90;;;;;;5097128;28;19924;-91
2022/10/02 13:56:19;;;;;;;;;;;17.00;99.90;;;;;;5139736;27;20103;-91
2022/10/02 13:58:53;;;;;;;;;;;16.80;99.90;;;;;;5105821;28;19930;-90
2022/10/02 14:01:28;;;;;;;;;;;16.40;99.90;;;;;;5095796;28;19923;-91
2022/10/02 14:04:02;;;;;;;;;;;16.10;99.90;;;;;;5118417;28;20451;-91
2022/10/02 14:06:32;;;;;;;;;;;15.90;99.90;;;;;;5134701;27;19935;-90
2022/10/02 14:09:10;;;;;;;;;;;15.90;99.90;;;;;;5098251;28;20317;-88
2022/10/02 14:12:15;;;;;;;;;;;15.90;99.90;;;;;;5139385;27;19928;-91
2022/10/02 14:14:41;;;;;;;;;;;15.90;99.90;;;;;;5054787;28;19932;-92
2022/10/02 14:17:12;;;;;;;;;;;16.10;99.90;;;;;;5046681;28;20400;-90
2022/10/02 14:19:50;;;;;;;;;;;16.20;99.90;;;;;;5070653;28;19956;-90
2022/10/02 14:22:16;;;;;;;;;;;16.30;99.90;;;;;;5120287;27;19924;-91
2022/10/02 14:25:00;;;;;;;;;;;16.30;99.90;;;;;;5129857;27;19962;-89
2022/10/02 14:27:28;;;;;;;;;;;16.40;99.90;;;;;;5141626;27;19924;-89
2022/10/02 14:30:14;;;;;;;;;;;16.60;99.90;;;;;;5103487;28;20306;-91
2022/10/02 14:32:52;;;;;;;;;;;16.80;99.90;;;;;;5109655;28;19963;-92
2022/10/02 14:35:40;;;;;;;;;;;16.90;99.90;;;;;;5110002;28;19935;-90
2022/10/02 14:38:24;;;;;;;;;;;17.00;99.90;;;;;;5130872;27;20011;-89
2022/10/02 14:40:58;;;;;;;;;;;17.10;99.90;;;;;;5141080;27;20041;-91
2022/10/02 14:43:42;;;;;;;;;;;17.30;99.90;;;;;;5086692;28;19936;-92
2022/10/02 14:46:18;;;;;;;;;;;17.50;99.90;;;;;;5136327;27;19980;-90
2022/10/02 14:49:04;;;;;;;;;;;17.50;99.90;;;;;;5106990;28;19930;-91
2022/10/02 14:51:33;;;;;;;;;;;17.70;99.90;;;;;;5088204;28;19982;-91
2022/10/02 14:54:17;;;;;;;;;;;17.70;99.90;;;;;;5133467;27;19931;-88
2022/10/02 14:56:43;;;;;;;;;;;17.70;99.90;;;;;;5144416;27;19931;-89
2022/10/02 14:59:09;;;;;;;;;;;17.90;99.90;;;;;;5143014;27;19923;-91
2022/10/02 15:01:42;;;;;;;;;;;17.80;99.90;;;;;;5097706;28;19935;-90
2022/10/02 15:04:26;;;;;;;;;;;17.90;99.90;;;;;;5142836;27;19924;-89
2022/10/02 15:07:03;;;;;;;;;;;17.80;99.90;;;;;;5105548;28;19920;-89
2022/10/02 15:09:34;;;;;;;;;;;17.70;99.90;;;;;;5108945;28;19991;-91
2022/10/02 15:12:13;;;;;;;;;;;17.40;99.90;;;;;;5136735;27;19945;-90